sensor_id;sensor_type;location;lat;lon;timestamp;temperature;humidity
1103;DHT22;538;42.654;23.376;2023-02-28T00:00:18;8.00;80.00
1103;DHT22;538;42.654;23.376;2023-02-28T00:02:46;8.00;80.40
1103;DHT22;538;42.654;23.376;2023-02-28T00:05:15;8.00;81.20
1103;DHT22;538;42.654;23.376;2023-02-28T00:07:42;7.90;83.30
1103;DHT22;538;42.654;23.376;2023-02-28T00:10:11;7.90;85.30
1103;DHT22;538;42.654;23.376;2023-02-28T00:12:39;7.90;85.10
1103;DHT22;538;42.654;23.376;2023-02-28T00:15:07;7.80;84.60
1103;DHT22;538;42.654;23.376;2023-02-28T00:17:35;7.80;85.20
1103;DHT22;538;42.654;23.376;2023-02-28T00:20:03;7.80;87.20
1103;DHT22;538;42.654;23.376;2023-02-28T00:22:34;7.80;88.70
1103;DHT22;538;42.654;23.376;2023-02-28T00:25:03;7.70;89.10
1103;DHT22;538;42.654;23.376;2023-02-28T00:27:32;7.70;90.50
1103;DHT22;538;42.654;23.376;2023-02-28T00:30:03;7.60;90.90
1103;DHT22;538;42.654;23.376;2023-02-28T00:32:35;7.60;91.40
1103;DHT22;538;42.654;23.376;2023-02-28T00:35:09;7.70;92.30
1103;DHT22;538;42.654;23.376;2023-02-28T00:37:38;7.80;92.30
1103;DHT22;538;42.654;23.376;2023-02-28T00:40:07;7.80;91.50
1103;DHT22;538;42.654;23.376;2023-02-28T00:42:35;7.90;91.80
1103;DHT22;538;42.654;23.376;2023-02-28T00:45:05;8.00;91.80
1103;DHT22;538;42.654;23.376;2023-02-28T00:47:33;8.00;91.50
1103;DHT22;538;42.654;23.376;2023-02-28T00:50:02;8.00;90.90
1103;DHT22;538;42.654;23.376;2023-02-28T00:52:30;8.00;91.10
1103;DHT22;538;42.654;23.376;2023-02-28T00:54:58;8.00;91.00
1103;DHT22;538;42.654;23.376;2023-02-28T00:57:26;8.00;90.20
1103;DHT22;538;42.654;23.376;2023-02-28T00:59:53;8.00;89.40
1103;DHT22;538;42.654;23.376;2023-02-28T01:02:23;7.90;88.90
1103;DHT22;538;42.654;23.376;2023-02-28T01:04:50;7.90;89.90
1103;DHT22;538;42.654;23.376;2023-02-28T01:07:19;7.90;89.30
1103;DHT22;538;42.654;23.376;2023-02-28T01:09:46;7.90;89.20
1103;DHT22;538;42.654;23.376;2023-02-28T01:12:15;7.90;88.90
1103;DHT22;538;42.654;23.376;2023-02-28T01:14:42;8.00;88.60
1103;DHT22;538;42.654;23.376;2023-02-28T01:17:10;8.00;88.10
1103;DHT22;538;42.654;23.376;2023-02-28T01:19:38;8.00;88.60
1103;DHT22;538;42.654;23.376;2023-02-28T01:22:06;7.90;88.20
1103;DHT22;538;42.654;23.376;2023-02-28T01:24:33;7.90;88.00
1103;DHT22;538;42.654;23.376;2023-02-28T01:27:00;7.90;88.50
1103;DHT22;538;42.654;23.376;2023-02-28T01:29:27;7.90;89.40
1103;DHT22;538;42.654;23.376;2023-02-28T01:31:54;7.90;89.40
1103;DHT22;538;42.654;23.376;2023-02-28T01:34:22;8.00;89.30
1103;DHT22;538;42.654;23.376;2023-02-28T01:36:51;8.00;88.30
1103;DHT22;538;42.654;23.376;2023-02-28T01:39:18;8.00;86.70
1103;DHT22;538;42.654;23.376;2023-02-28T01:41:45;8.00;84.70
1103;DHT22;538;42.654;23.376;2023-02-28T01:47:17;8.00;83.70
1103;DHT22;538;42.654;23.376;2023-02-28T01:49:44;7.90;81.90
1103;DHT22;538;42.654;23.376;2023-02-28T01:52:14;7.90;80.90
1103;DHT22;538;42.654;23.376;2023-02-28T01:54:47;8.00;79.20
1103;DHT22;538;42.654;23.376;2023-02-28T01:57:18;7.80;79.60
1103;DHT22;538;42.654;23.376;2023-02-28T01:59:51;7.80;80.00
1103;DHT22;538;42.654;23.376;2023-02-28T02:02:20;7.90;80.40
1103;DHT22;538;42.654;23.376;2023-02-28T02:04:53;7.80;80.80
1103;DHT22;538;42.654;23.376;2023-02-28T02:07:23;7.70;80.70
1103;DHT22;538;42.654;23.376;2023-02-28T02:10:00;7.60;80.70
1103;DHT22;538;42.654;23.376;2023-02-28T02:12:39;7.60;83.20
1103;DHT22;538;42.654;23.376;2023-02-28T02:15:13;7.60;83.90
1103;DHT22;538;42.654;23.376;2023-02-28T02:17:45;7.50;85.70
1103;DHT22;538;42.654;23.376;2023-02-28T02:23:58;7.50;89.30
1103;DHT22;538;42.654;23.376;2023-02-28T02:26:51;7.40;90.60
1103;DHT22;538;42.654;23.376;2023-02-28T02:29:42;7.40;91.50
1103;DHT22;538;42.654;23.376;2023-02-28T02:32:31;7.40;92.40
1103;DHT22;538;42.654;23.376;2023-02-28T02:35:08;7.30;92.80
1103;DHT22;538;42.654;23.376;2023-02-28T02:37:41;7.30;93.50
1103;DHT22;538;42.654;23.376;2023-02-28T02:40:14;7.30;94.40
1103;DHT22;538;42.654;23.376;2023-02-28T02:42:47;7.40;94.90
1103;DHT22;538;42.654;23.376;2023-02-28T02:45:19;7.40;94.80
1103;DHT22;538;42.654;23.376;2023-02-28T02:47:49;7.50;94.60
1103;DHT22;538;42.654;23.376;2023-02-28T02:50:22;7.50;94.80
1103;DHT22;538;42.654;23.376;2023-02-28T02:52:55;7.50;94.80
1103;DHT22;538;42.654;23.376;2023-02-28T02:55:23;7.50;94.80
1103;DHT22;538;42.654;23.376;2023-02-28T02:57:54;7.60;94.90
1103;DHT22;538;42.654;23.376;2023-02-28T03:00:24;7.80;94.90
1103;DHT22;538;42.654;23.376;2023-02-28T03:02:53;7.70;94.90
1103;DHT22;538;42.654;23.376;2023-02-28T03:05:26;7.80;94.90
1103;DHT22;538;42.654;23.376;2023-02-28T03:07:53;7.80;95.10
1103;DHT22;538;42.654;23.376;2023-02-28T03:10:37;7.80;94.90
1103;DHT22;538;42.654;23.376;2023-02-28T03:13:15;7.90;95.10
1103;DHT22;538;42.654;23.376;2023-02-28T03:15:54;8.00;94.30
1103;DHT22;538;42.654;23.376;2023-02-28T03:18:28;8.00;94.40
1103;DHT22;538;42.654;23.376;2023-02-28T03:21:04;8.00;93.90
1103;DHT22;538;42.654;23.376;2023-02-28T03:23:39;8.00;93.50
1103;DHT22;538;42.654;23.376;2023-02-28T03:26:17;8.10;93.10
1103;DHT22;538;42.654;23.376;2023-02-28T03:28:52;8.10;92.60
1103;DHT22;538;42.654;23.376;2023-02-28T03:31:27;8.20;92.20
1103;DHT22;538;42.654;23.376;2023-02-28T03:34:01;8.20;91.20
1103;DHT22;538;42.654;23.376;2023-02-28T03:36:35;8.20;90.20
1103;DHT22;538;42.654;23.376;2023-02-28T03:39:11;8.20;89.10
1103;DHT22;538;42.654;23.376;2023-02-28T03:41:43;8.30;88.30
1103;DHT22;538;42.654;23.376;2023-02-28T03:44:16;8.20;87.30
1103;DHT22;538;42.654;23.376;2023-02-28T03:46:47;8.30;86.30
1103;DHT22;538;42.654;23.376;2023-02-28T03:49:18;8.30;86.60
1103;DHT22;538;42.654;23.376;2023-02-28T03:51:49;8.30;85.50
1103;DHT22;538;42.654;23.376;2023-02-28T03:54:19;8.20;85.10
1103;DHT22;538;42.654;23.376;2023-02-28T03:56:51;8.20;85.20
1103;DHT22;538;42.654;23.376;2023-02-28T03:59:22;8.30;84.90
1103;DHT22;538;42.654;23.376;2023-02-28T04:01:53;8.20;84.00
1103;DHT22;538;42.654;23.376;2023-02-28T04:04:21;8.20;80.60
1103;DHT22;538;42.654;23.376;2023-02-28T04:06:51;8.20;81.10
1103;DHT22;538;42.654;23.376;2023-02-28T04:09:19;8.30;80.00
1103;DHT22;538;42.654;23.376;2023-02-28T04:11:50;8.30;80.30
1103;DHT22;538;42.654;23.376;2023-02-28T04:14:18;8.20;80.00
1103;DHT22;538;42.654;23.376;2023-02-28T04:16:45;8.20;81.00
1103;DHT22;538;42.654;23.376;2023-02-28T04:19:13;8.20;81.00
1103;DHT22;538;42.654;23.376;2023-02-28T04:21:42;8.20;80.40
1103;DHT22;538;42.654;23.376;2023-02-28T04:24:13;8.20;78.70
1103;DHT22;538;42.654;23.376;2023-02-28T04:26:42;8.20;79.20
1103;DHT22;538;42.654;23.376;2023-02-28T04:29:10;8.20;79.20
1103;DHT22;538;42.654;23.376;2023-02-28T04:31:38;8.20;79.10
1103;DHT22;538;42.654;23.376;2023-02-28T04:34:05;8.10;78.30
1103;DHT22;538;42.654;23.376;2023-02-28T04:36:32;8.10;77.50
1103;DHT22;538;42.654;23.376;2023-02-28T04:38:59;8.10;78.00
1103;DHT22;538;42.654;23.376;2023-02-28T04:41:27;8.10;78.90
1103;DHT22;538;42.654;23.376;2023-02-28T04:43:55;8.10;78.70
1103;DHT22;538;42.654;23.376;2023-02-28T04:46:23;8.10;78.00
1103;DHT22;538;42.654;23.376;2023-02-28T04:48:49;8.10;77.80
1103;DHT22;538;42.654;23.376;2023-02-28T04:51:18;8.10;77.80
1103;DHT22;538;42.654;23.376;2023-02-28T04:53:46;7.90;78.10
1103;DHT22;538;42.654;23.376;2023-02-28T04:56:14;8.00;78.70
1103;DHT22;538;42.654;23.376;2023-02-28T04:58:43;8.00;79.50
1103;DHT22;538;42.654;23.376;2023-02-28T05:01:22;7.90;79.70
1103;DHT22;538;42.654;23.376;2023-02-28T05:03:49;8.00;80.10
1103;DHT22;538;42.654;23.376;2023-02-28T05:06:17;8.00;80.10
1103;DHT22;538;42.654;23.376;2023-02-28T05:08:44;8.00;80.80
1103;DHT22;538;42.654;23.376;2023-02-28T05:11:17;8.00;80.10
1103;DHT22;538;42.654;23.376;2023-02-28T05:13:46;8.00;80.50
1103;DHT22;538;42.654;23.376;2023-02-28T05:16:14;8.00;79.40
1103;DHT22;538;42.654;23.376;2023-02-28T05:18:41;6.80;78.40
1103;DHT22;538;42.654;23.376;2023-02-28T05:21:25;8.00;78.80
1103;DHT22;538;42.654;23.376;2023-02-28T05:23:53;8.00;79.30
1103;DHT22;538;42.654;23.376;2023-02-28T05:26:20;8.00;79.80
1103;DHT22;538;42.654;23.376;2023-02-28T05:28:49;8.00;80.00
1103;DHT22;538;42.654;23.376;2023-02-28T05:31:16;8.00;79.80
1103;DHT22;538;42.654;23.376;2023-02-28T05:33:43;7.90;78.90
1103;DHT22;538;42.654;23.376;2023-02-28T05:36:10;8.10;79.00
1103;DHT22;538;42.654;23.376;2023-02-28T05:38:37;8.00;80.10
1103;DHT22;538;42.654;23.376;2023-02-28T05:41:06;8.00;80.20
1103;DHT22;538;42.654;23.376;2023-02-28T05:43:33;8.00;80.40
1103;DHT22;538;42.654;23.376;2023-02-28T05:46:04;8.10;80.40
1103;DHT22;538;42.654;23.376;2023-02-28T05:48:31;8.10;80.80
1103;DHT22;538;42.654;23.376;2023-02-28T05:50:58;8.10;79.60
1103;DHT22;538;42.654;23.376;2023-02-28T05:53:25;8.30;79.50
1103;DHT22;538;42.654;23.376;2023-02-28T05:55:52;8.20;79.80
1103;DHT22;538;42.654;23.376;2023-02-28T05:58:20;8.30;79.60
1103;DHT22;538;42.654;23.376;2023-02-28T06:00:48;8.30;79.20
1103;DHT22;538;42.654;23.376;2023-02-28T06:03:16;8.40;78.90
1103;DHT22;538;42.654;23.376;2023-02-28T06:05:43;8.30;77.30
1103;DHT22;538;42.654;23.376;2023-02-28T06:08:10;8.40;76.60
1103;DHT22;538;42.654;23.376;2023-02-28T06:10:37;8.50;77.10
1103;DHT22;538;42.654;23.376;2023-02-28T06:13:05;8.50;76.40
1103;DHT22;538;42.654;23.376;2023-02-28T06:15:32;8.50;76.00
1103;DHT22;538;42.654;23.376;2023-02-28T06:18:00;8.60;76.10
1103;DHT22;538;42.654;23.376;2023-02-28T06:20:28;8.70;77.20
1103;DHT22;538;42.654;23.376;2023-02-28T06:22:56;8.70;77.30
1103;DHT22;538;42.654;23.376;2023-02-28T06:25:24;8.80;77.20
1103;DHT22;538;42.654;23.376;2023-02-28T06:27:51;8.90;76.40
1103;DHT22;538;42.654;23.376;2023-02-28T06:30:18;8.90;76.50
1103;DHT22;538;42.654;23.376;2023-02-28T06:32:52;9.10;76.40
1103;DHT22;538;42.654;23.376;2023-02-28T06:35:20;9.10;75.10
1103;DHT22;538;42.654;23.376;2023-02-28T06:37:48;9.20;73.40
1103;DHT22;538;42.654;23.376;2023-02-28T06:40:15;9.30;72.30
1103;DHT22;538;42.654;23.376;2023-02-28T06:42:43;9.30;71.50
1103;DHT22;538;42.654;23.376;2023-02-28T06:45:10;9.30;70.60
1103;DHT22;538;42.654;23.376;2023-02-28T06:47:39;9.30;69.60
1103;DHT22;538;42.654;23.376;2023-02-28T06:50:08;9.40;69.10
1103;DHT22;538;42.654;23.376;2023-02-28T06:52:36;9.40;67.20
1103;DHT22;538;42.654;23.376;2023-02-28T06:55:06;9.50;65.90
1103;DHT22;538;42.654;23.376;2023-02-28T06:57:34;9.40;64.60
1103;DHT22;538;42.654;23.376;2023-02-28T07:00:05;9.40;64.60
1103;DHT22;538;42.654;23.376;2023-02-28T07:02:33;9.50;64.80
1103;DHT22;538;42.654;23.376;2023-02-28T07:05:01;9.50;64.60
1103;DHT22;538;42.654;23.376;2023-02-28T07:07:28;9.50;62.70
1103;DHT22;538;42.654;23.376;2023-02-28T07:09:55;9.50;61.60
1103;DHT22;538;42.654;23.376;2023-02-28T07:12:23;9.60;60.60
1103;DHT22;538;42.654;23.376;2023-02-28T07:14:50;9.60;60.70
1103;DHT22;538;42.654;23.376;2023-02-28T07:17:17;9.60;60.90
1103;DHT22;538;42.654;23.376;2023-02-28T07:19:44;9.60;60.70
1103;DHT22;538;42.654;23.376;2023-02-28T07:22:12;9.70;60.70
1103;DHT22;538;42.654;23.376;2023-02-28T07:24:39;9.80;59.20
1103;DHT22;538;42.654;23.376;2023-02-28T07:27:06;9.90;59.20
1103;DHT22;538;42.654;23.376;2023-02-28T07:29:34;10.00;58.80
1103;DHT22;538;42.654;23.376;2023-02-28T07:32:03;10.00;59.00
1103;DHT22;538;42.654;23.376;2023-02-28T07:34:30;10.20;58.80
1103;DHT22;538;42.654;23.376;2023-02-28T07:36:57;10.30;58.90
1103;DHT22;538;42.654;23.376;2023-02-28T07:39:24;10.40;59.20
1103;DHT22;538;42.654;23.376;2023-02-28T07:41:51;10.60;57.80
1103;DHT22;538;42.654;23.376;2023-02-28T07:44:19;10.90;58.60
1103;DHT22;538;42.654;23.376;2023-02-28T07:46:48;11.10;56.40
1103;DHT22;538;42.654;23.376;2023-02-28T07:49:15;11.20;53.10
1103;DHT22;538;42.654;23.376;2023-02-28T07:51:42;11.40;50.80
1103;DHT22;538;42.654;23.376;2023-02-28T07:54:09;11.50;48.00
1103;DHT22;538;42.654;23.376;2023-02-28T07:56:36;11.60;46.60
1103;DHT22;538;42.654;23.376;2023-02-28T07:59:03;11.60;45.10
1103;DHT22;538;42.654;23.376;2023-02-28T08:01:30;11.70;44.90
1103;DHT22;538;42.654;23.376;2023-02-28T08:03:59;11.70;45.00
1103;DHT22;538;42.654;23.376;2023-02-28T08:06:26;11.70;45.40
1103;DHT22;538;42.654;23.376;2023-02-28T08:08:53;11.80;45.20
1103;DHT22;538;42.654;23.376;2023-02-28T08:11:21;11.80;44.80
1103;DHT22;538;42.654;23.376;2023-02-28T08:13:48;11.90;45.00
1103;DHT22;538;42.654;23.376;2023-02-28T08:16:16;12.10;45.80
1103;DHT22;538;42.654;23.376;2023-02-28T08:18:47;12.20;45.90
1103;DHT22;538;42.654;23.376;2023-02-28T08:21:16;12.40;45.70
1103;DHT22;538;42.654;23.376;2023-02-28T08:23:43;12.40;46.20
1103;DHT22;538;42.654;23.376;2023-02-28T08:26:13;12.50;46.10
1103;DHT22;538;42.654;23.376;2023-02-28T08:28:40;12.50;47.00
1103;DHT22;538;42.654;23.376;2023-02-28T08:31:08;12.70;47.20
1103;DHT22;538;42.654;23.376;2023-02-28T08:33:36;12.70;46.90
1103;DHT22;538;42.654;23.376;2023-02-28T08:36:05;12.80;46.20
1103;DHT22;538;42.654;23.376;2023-02-28T08:38:34;12.90;46.30
1103;DHT22;538;42.654;23.376;2023-02-28T08:41:03;13.00;44.90
1103;DHT22;538;42.654;23.376;2023-02-28T08:43:33;13.10;44.70
1103;DHT22;538;42.654;23.376;2023-02-28T08:46:00;13.20;45.30
1103;DHT22;538;42.654;23.376;2023-02-28T08:48:28;13.40;45.20
1103;DHT22;538;42.654;23.376;2023-02-28T08:50:56;13.60;43.90
1103;DHT22;538;42.654;23.376;2023-02-28T08:53:23;13.70;40.10
1103;DHT22;538;42.654;23.376;2023-02-28T08:56:00;13.70;38.90
1103;DHT22;538;42.654;23.376;2023-02-28T08:58:27;13.80;39.10
1103;DHT22;538;42.654;23.376;2023-02-28T09:00:55;13.80;38.70
1103;DHT22;538;42.654;23.376;2023-02-28T09:03:22;14.00;37.30
1103;DHT22;538;42.654;23.376;2023-02-28T09:05:55;14.00;35.20
1103;DHT22;538;42.654;23.376;2023-02-28T09:08:22;14.10;35.30
1103;DHT22;538;42.654;23.376;2023-02-28T09:10:49;14.00;35.90
1103;DHT22;538;42.654;23.376;2023-02-28T09:13:18;14.00;34.90
1103;DHT22;538;42.654;23.376;2023-02-28T09:15:45;13.90;34.80
1103;DHT22;538;42.654;23.376;2023-02-28T09:18:12;13.90;35.90
1103;DHT22;538;42.654;23.376;2023-02-28T09:20:40;14.10;36.40
1103;DHT22;538;42.654;23.376;2023-02-28T09:23:08;14.20;35.80
1103;DHT22;538;42.654;23.376;2023-02-28T09:25:36;14.40;35.00
1103;DHT22;538;42.654;23.376;2023-02-28T09:28:03;14.60;32.80
1103;DHT22;538;42.654;23.376;2023-02-28T09:30:32;14.80;32.50
1103;DHT22;538;42.654;23.376;2023-02-28T09:32:59;15.00;32.50
1103;DHT22;538;42.654;23.376;2023-02-28T09:35:26;15.30;29.10
1103;DHT22;538;42.654;23.376;2023-02-28T09:37:53;15.40;27.90
1103;DHT22;538;42.654;23.376;2023-02-28T09:40:22;15.40;27.50
1103;DHT22;538;42.654;23.376;2023-02-28T09:42:52;15.60;26.80
1103;DHT22;538;42.654;23.376;2023-02-28T09:45:25;15.70;27.20
1103;DHT22;538;42.654;23.376;2023-02-28T09:47:58;15.70;26.40
1103;DHT22;538;42.654;23.376;2023-02-28T09:50:30;15.70;25.90
1103;DHT22;538;42.654;23.376;2023-02-28T09:53:01;15.70;25.70
1103;DHT22;538;42.654;23.376;2023-02-28T09:55:33;15.80;24.90
1103;DHT22;538;42.654;23.376;2023-02-28T09:58:02;15.80;24.70
1103;DHT22;538;42.654;23.376;2023-02-28T10:00:33;16.00;24.40
1103;DHT22;538;42.654;23.376;2023-02-28T10:03:25;16.10;23.20
1103;DHT22;538;42.654;23.376;2023-02-28T10:05:57;16.10;22.70
1103;DHT22;538;42.654;23.376;2023-02-28T10:08:31;16.20;21.90
1103;DHT22;538;42.654;23.376;2023-02-28T10:11:01;16.20;21.60
1103;DHT22;538;42.654;23.376;2023-02-28T10:13:34;16.20;21.60
1103;DHT22;538;42.654;23.376;2023-02-28T10:16:05;16.20;21.20
1103;DHT22;538;42.654;23.376;2023-02-28T10:18:41;16.30;21.10
1103;DHT22;538;42.654;23.376;2023-02-28T10:21:17;16.50;20.80
1103;DHT22;538;42.654;23.376;2023-02-28T10:23:47;16.70;19.70
1103;DHT22;538;42.654;23.376;2023-02-28T10:26:16;16.90;19.50
1103;DHT22;538;42.654;23.376;2023-02-28T10:28:44;17.00;19.30
1103;DHT22;538;42.654;23.376;2023-02-28T10:31:14;17.10;18.40
1103;DHT22;538;42.654;23.376;2023-02-28T10:33:45;17.30;18.40
1103;DHT22;538;42.654;23.376;2023-02-28T10:36:14;17.50;18.00
1103;DHT22;538;42.654;23.376;2023-02-28T10:38:42;17.70;17.60
1103;DHT22;538;42.654;23.376;2023-02-28T10:41:12;18.00;16.00
1103;DHT22;538;42.654;23.376;2023-02-28T10:43:41;18.30;15.70
1103;DHT22;538;42.654;23.376;2023-02-28T10:46:16;18.60;15.10
1103;DHT22;538;42.654;23.376;2023-02-28T10:49:01;18.90;15.70
1103;DHT22;538;42.654;23.376;2023-02-28T10:51:36;19.00;14.50
1103;DHT22;538;42.654;23.376;2023-02-28T10:54:04;19.10;14.00
1103;DHT22;538;42.654;23.376;2023-02-28T10:56:32;19.20;13.60
1103;DHT22;538;42.654;23.376;2023-02-28T10:59:00;19.40;14.10
1103;DHT22;538;42.654;23.376;2023-02-28T11:01:39;19.50;11.70
1103;DHT22;538;42.654;23.376;2023-02-28T11:04:32;19.70;12.60
1103;DHT22;538;42.654;23.376;2023-02-28T11:07:03;19.80;11.40
1103;DHT22;538;42.654;23.376;2023-02-28T11:09:32;19.80;10.70
1103;DHT22;538;42.654;23.376;2023-02-28T11:12:01;19.70;11.00
1103;DHT22;538;42.654;23.376;2023-02-28T11:14:31;19.80;11.50
1103;DHT22;538;42.654;23.376;2023-02-28T11:17:10;19.70;10.20
1103;DHT22;538;42.654;23.376;2023-02-28T11:19:46;19.50;10.40
1103;DHT22;538;42.654;23.376;2023-02-28T11:22:19;19.60;11.10
1103;DHT22;538;42.654;23.376;2023-02-28T11:24:49;19.60;11.30
1103;DHT22;538;42.654;23.376;2023-02-28T11:27:25;19.60;10.50
1103;DHT22;538;42.654;23.376;2023-02-28T11:29:53;19.30;10.40
1103;DHT22;538;42.654;23.376;2023-02-28T11:32:21;19.30;10.80
1103;DHT22;538;42.654;23.376;2023-02-28T11:35:03;19.00;10.70
1103;DHT22;538;42.654;23.376;2023-02-28T11:37:32;18.70;11.20
1103;DHT22;538;42.654;23.376;2023-02-28T11:39:59;18.50;11.10
1103;DHT22;538;42.654;23.376;2023-02-28T11:42:35;18.30;11.30
1103;DHT22;538;42.654;23.376;2023-02-28T11:45:15;18.40;12.30
1103;DHT22;538;42.654;23.376;2023-02-28T11:47:47;18.30;12.10
1103;DHT22;538;42.654;23.376;2023-02-28T11:50:39;18.30;12.40
1103;DHT22;538;42.654;23.376;2023-02-28T11:53:17;18.60;12.30
1103;DHT22;538;42.654;23.376;2023-02-28T11:55:49;18.60;12.20
1103;DHT22;538;42.654;23.376;2023-02-28T11:58:28;18.90;11.70
1103;DHT22;538;42.654;23.376;2023-02-28T12:01:20;19.20;11.50
1103;DHT22;538;42.654;23.376;2023-02-28T12:03:58;19.30;11.00
1103;DHT22;538;42.654;23.376;2023-02-28T12:06:36;19.50;10.30
1103;DHT22;538;42.654;23.376;2023-02-28T12:09:20;19.10;10.50
1103;DHT22;538;42.654;23.376;2023-02-28T12:11:53;18.60;11.10
1103;DHT22;538;42.654;23.376;2023-02-28T12:17:32;18.30;11.70
1103;DHT22;538;42.654;23.376;2023-02-28T12:20:12;18.40;12.00
1103;DHT22;538;42.654;23.376;2023-02-28T12:22:51;18.40;12.40
1103;DHT22;538;42.654;23.376;2023-02-28T12:25:47;18.90;10.90
1103;DHT22;538;42.654;23.376;2023-02-28T12:28:18;19.20;10.40
1103;DHT22;538;42.654;23.376;2023-02-28T12:30:51;19.20;10.00
1103;DHT22;538;42.654;23.376;2023-02-28T12:33:24;19.30;10.10
1103;DHT22;538;42.654;23.376;2023-02-28T12:35:54;19.40;9.80
1103;DHT22;538;42.654;23.376;2023-02-28T12:38:27;19.60;9.50
1103;DHT22;538;42.654;23.376;2023-02-28T12:40:57;19.50;9.90
1103;DHT22;538;42.654;23.376;2023-02-28T12:43:30;19.60;9.90
1103;DHT22;538;42.654;23.376;2023-02-28T12:46:02;20.00;9.30
1103;DHT22;538;42.654;23.376;2023-02-28T12:48:38;20.10;9.80
1103;DHT22;538;42.654;23.376;2023-02-28T12:51:07;20.20;7.90
1103;DHT22;538;42.654;23.376;2023-02-28T12:53:48;20.20;8.60
1103;DHT22;538;42.654;23.376;2023-02-28T12:56:19;19.90;7.90
1103;DHT22;538;42.654;23.376;2023-02-28T12:58:50;19.80;7.90
1103;DHT22;538;42.654;23.376;2023-02-28T13:01:42;19.80;8.40
1103;DHT22;538;42.654;23.376;2023-02-28T13:04:32;19.70;9.00
1103;DHT22;538;42.654;23.376;2023-02-28T13:10:13;19.30;8.50
1103;DHT22;538;42.654;23.376;2023-02-28T13:12:48;19.20;8.40
1103;DHT22;538;42.654;23.376;2023-02-28T13:15:18;19.10;8.80
1103;DHT22;538;42.654;23.376;2023-02-28T13:17:51;19.00;8.90
1103;DHT22;538;42.654;23.376;2023-02-28T13:20:20;18.90;8.70
1103;DHT22;538;42.654;23.376;2023-02-28T13:22:49;18.90;9.20
1103;DHT22;538;42.654;23.376;2023-02-28T13:25:52;19.00;8.70
1103;DHT22;538;42.654;23.376;2023-02-28T13:28:57;19.10;8.90
1103;DHT22;538;42.654;23.376;2023-02-28T13:31:24;19.30;7.60
1103;DHT22;538;42.654;23.376;2023-02-28T13:34:14;19.20;7.90
1103;DHT22;538;42.654;23.376;2023-02-28T13:36:41;19.20;7.90
1103;DHT22;538;42.654;23.376;2023-02-28T13:42:33;18.80;8.70
1103;DHT22;538;42.654;23.376;2023-02-28T13:45:30;18.40;9.00
1103;DHT22;538;42.654;23.376;2023-02-28T13:48:04;17.50;9.90
1103;DHT22;538;42.654;23.376;2023-02-28T13:50:42;17.10;10.20
1103;DHT22;538;42.654;23.376;2023-02-28T13:56:35;16.20;11.70
1103;DHT22;538;42.654;23.376;2023-02-28T13:59:19;15.70;12.90
1103;DHT22;538;42.654;23.376;2023-02-28T14:01:58;15.30;13.70
1103;DHT22;538;42.654;23.376;2023-02-28T14:07:21;14.50;16.20
1103;DHT22;538;42.654;23.376;2023-02-28T14:09:57;14.20;17.40
1103;DHT22;538;42.654;23.376;2023-02-28T14:12:56;13.80;18.80
1103;DHT22;538;42.654;23.376;2023-02-28T14:15:38;13.40;20.00
1103;DHT22;538;42.654;23.376;2023-02-28T14:18:15;13.30;21.50
1103;DHT22;538;42.654;23.376;2023-02-28T14:20:44;13.30;22.40
1103;DHT22;538;42.654;23.376;2023-02-28T14:23:18;13.20;23.60
1103;DHT22;538;42.654;23.376;2023-02-28T14:25:55;13.10;24.00
1103;DHT22;538;42.654;23.376;2023-02-28T14:28:46;13.10;24.00
1103;DHT22;538;42.654;23.376;2023-02-28T14:31:23;13.10;24.30
1103;DHT22;538;42.654;23.376;2023-02-28T14:34:05;13.10;24.80
1103;DHT22;538;42.654;23.376;2023-02-28T14:36:37;13.10;24.90
1103;DHT22;538;42.654;23.376;2023-02-28T14:39:10;13.00;24.80
1103;DHT22;538;42.654;23.376;2023-02-28T14:41:40;12.90;25.10
1103;DHT22;538;42.654;23.376;2023-02-28T14:44:16;12.80;25.70
1103;DHT22;538;42.654;23.376;2023-02-28T14:46:46;12.50;26.30
1103;DHT22;538;42.654;23.376;2023-02-28T14:49:18;12.70;26.80
1103;DHT22;538;42.654;23.376;2023-02-28T14:51:47;12.50;27.20
1103;DHT22;538;42.654;23.376;2023-02-28T14:54:16;12.30;28.00
1103;DHT22;538;42.654;23.376;2023-02-28T14:56:50;12.40;28.30
1103;DHT22;538;42.654;23.376;2023-02-28T14:59:25;12.30;28.80
1103;DHT22;538;42.654;23.376;2023-02-28T15:02:15;12.30;28.60
1103;DHT22;538;42.654;23.376;2023-02-28T15:04:42;12.20;29.50
1103;DHT22;538;42.654;23.376;2023-02-28T15:07:10;12.20;29.90
1103;DHT22;538;42.654;23.376;2023-02-28T15:09:37;12.20;30.10
1103;DHT22;538;42.654;23.376;2023-02-28T15:12:05;13.20;31.30
1103;DHT22;538;42.654;23.376;2023-02-28T15:14:32;12.10;30.40
1103;DHT22;538;42.654;23.376;2023-02-28T15:17:07;12.20;30.10
1103;DHT22;538;42.654;23.376;2023-02-28T15:19:37;12.10;29.50
1103;DHT22;538;42.654;23.376;2023-02-28T15:22:12;12.20;29.60
1103;DHT22;538;42.654;23.376;2023-02-28T15:24:43;12.20;29.90
1103;DHT22;538;42.654;23.376;2023-02-28T15:27:14;11.80;29.90
1103;DHT22;538;42.654;23.376;2023-02-28T15:29:45;12.00;30.50
1103;DHT22;538;42.654;23.376;2023-02-28T15:32:27;12.10;30.90
1103;DHT22;538;42.654;23.376;2023-02-28T15:34:55;12.10;31.00
1103;DHT22;538;42.654;23.376;2023-02-28T15:37:28;11.90;30.70
1103;DHT22;538;42.654;23.376;2023-02-28T15:40:03;11.90;31.00
1103;DHT22;538;42.654;23.376;2023-02-28T15:42:31;12.10;31.40
1103;DHT22;538;42.654;23.376;2023-02-28T15:44:59;11.90;31.60
1103;DHT22;538;42.654;23.376;2023-02-28T15:47:29;11.80;31.70
1103;DHT22;538;42.654;23.376;2023-02-28T15:49:58;11.80;32.40
1103;DHT22;538;42.654;23.376;2023-02-28T15:52:29;11.80;32.50
1103;DHT22;538;42.654;23.376;2023-02-28T15:55:08;11.70;33.20
1103;DHT22;538;42.654;23.376;2023-02-28T15:57:36;11.60;33.70
1103;DHT22;538;42.654;23.376;2023-02-28T16:00:04;11.40;34.10
1103;DHT22;538;42.654;23.376;2023-02-28T16:02:34;11.50;34.80
1103;DHT22;538;42.654;23.376;2023-02-28T16:05:19;11.60;35.30
1103;DHT22;538;42.654;23.376;2023-02-28T16:07:53;11.70;35.60
1103;DHT22;538;42.654;23.376;2023-02-28T16:10:22;11.60;35.30
1103;DHT22;538;42.654;23.376;2023-02-28T16:12:53;11.60;34.90
1103;DHT22;538;42.654;23.376;2023-02-28T16:15:22;11.50;35.40
1103;DHT22;538;42.654;23.376;2023-02-28T16:17:52;11.40;36.70
1103;DHT22;538;42.654;23.376;2023-02-28T16:20:21;11.30;38.10
1103;DHT22;538;42.654;23.376;2023-02-28T16:22:49;11.20;38.90
1103;DHT22;538;42.654;23.376;2023-02-28T16:25:18;11.20;39.70
1103;DHT22;538;42.654;23.376;2023-02-28T16:27:48;11.10;40.90
1103;DHT22;538;42.654;23.376;2023-02-28T16:30:19;11.10;41.30
1103;DHT22;538;42.654;23.376;2023-02-28T16:35:16;10.90;41.40
1103;DHT22;538;42.654;23.376;2023-02-28T16:40:14;10.80;41.60
1103;DHT22;538;42.654;23.376;2023-02-28T16:42:43;10.60;42.00
1103;DHT22;538;42.654;23.376;2023-02-28T16:45:16;10.80;43.20
1103;DHT22;538;42.654;23.376;2023-02-28T16:50:16;10.70;44.20
1103;DHT22;538;42.654;23.376;2023-02-28T16:52:43;10.60;44.20
1103;DHT22;538;42.654;23.376;2023-02-28T16:55:10;10.60;44.10
1103;DHT22;538;42.654;23.376;2023-02-28T16:57:38;10.50;44.80
1103;DHT22;538;42.654;23.376;2023-02-28T17:00:07;10.50;44.90
1103;DHT22;538;42.654;23.376;2023-02-28T17:02:35;10.50;44.90
1103;DHT22;538;42.654;23.376;2023-02-28T17:05:02;10.40;44.10